createdAt,value
2023-04-22T00:00:24.823Z,99174.81
2023-04-22T00:02:53.253Z,99176.31
2023-04-22T00:05:21.140Z,99183.72
2023-04-22T00:07:48.959Z,99175.34
2023-04-22T00:10:16.611Z,99172.09
2023-04-22T00:12:44.642Z,99173.19
2023-04-22T00:15:12.813Z,99167.31
2023-04-22T00:17:40.544Z,99166.63
2023-04-22T00:20:08.413Z,99161.41
2023-04-22T00:22:36.072Z,99157.09
2023-04-22T00:25:03.691Z,99153.56
2023-04-22T00:27:31.316Z,99156.22
2023-04-22T00:29:58.924Z,99157.22
2023-04-22T00:32:26.703Z,99160.84
2023-04-22T00:34:54.649Z,99154.97
2023-04-22T00:37:22.288Z,99157.75
2023-04-22T00:39:50.252Z,99163.19
2023-04-22T00:42:17.867Z,99149.19
2023-04-22T00:44:45.555Z,99159.00
2023-04-22T00:47:13.241Z,99155.34
2023-04-22T00:49:41.213Z,99154.50
2023-04-22T00:52:09.372Z,99162.22
2023-04-22T00:54:36.947Z,99153.16
2023-04-22T00:57:05.137Z,99160.16
2023-04-22T00:59:32.772Z,99159.88
2023-04-22T01:02:00.748Z,99155.25
2023-04-22T01:04:29.003Z,99152.34
2023-04-22T01:06:56.734Z,99153.16
2023-04-22T01:09:24.415Z,99151.09
2023-04-22T01:11:52.012Z,99150.13
2023-04-22T01:14:19.630Z,99150.00
2023-04-22T01:16:48.682Z,99152.38
2023-04-22T01:19:16.633Z,99152.25
2023-04-22T01:21:45.188Z,99154.66
2023-04-22T01:24:12.881Z,99144.72
2023-04-22T01:26:40.469Z,99146.28
2023-04-22T01:29:08.671Z,99146.84
2023-04-22T01:31:36.281Z,99147.81
2023-04-22T01:34:03.924Z,99142.88
2023-04-22T01:36:32.891Z,99142.59
2023-04-22T01:39:00.465Z,99151.25
2023-04-22T01:41:29.743Z,99154.56
2023-04-22T01:43:57.348Z,99157.75
2023-04-22T01:46:25.075Z,99148.09
2023-04-22T01:48:52.665Z,99148.38
2023-04-22T01:51:20.940Z,99159.13
2023-04-22T01:53:49.152Z,99166.22
2023-04-22T01:56:16.694Z,99169.75
2023-04-22T01:58:44.346Z,99160.91
2023-04-22T02:01:11.961Z,99157.44
2023-04-22T02:03:39.640Z,99160.91
2023-04-22T02:06:08.203Z,99172.28
2023-04-22T02:08:35.856Z,99165.97
2023-04-22T02:11:03.436Z,99163.03
2023-04-22T02:13:31.069Z,99168.13
2023-04-22T02:15:58.643Z,99164.19
2023-04-22T02:18:26.244Z,99163.97
2023-04-22T02:20:53.963Z,99160.31
2023-04-22T02:23:21.597Z,99162.97
2023-04-22T02:25:49.637Z,99154.28
2023-04-22T02:28:17.286Z,99159.59
2023-04-22T02:30:44.851Z,99158.50
2023-04-22T02:33:12.393Z,99161.88
2023-04-22T02:35:40.034Z,99159.78
2023-04-22T02:38:07.618Z,99164.13
2023-04-22T02:40:35.208Z,99164.69
2023-04-22T02:43:03.165Z,99163.00
2023-04-22T02:45:30.776Z,99158.94
2023-04-22T02:47:58.875Z,99153.75
2023-04-22T02:50:26.513Z,99153.06
2023-04-22T02:52:54.128Z,99147.63
2023-04-22T02:55:22.520Z,99151.81
2023-04-22T02:57:50.771Z,99153.34
2023-04-22T03:00:18.393Z,99150.28
2023-04-22T03:02:46.214Z,99145.81
2023-04-22T03:05:14.301Z,99147.38
2023-04-22T03:07:42.398Z,99141.09
2023-04-22T03:10:10.488Z,99131.16
2023-04-22T03:12:38.160Z,99131.16
2023-04-22T03:15:06.112Z,99137.19
2023-04-22T03:17:33.799Z,99134.53
2023-04-22T03:20:01.975Z,99130.75
2023-04-22T03:22:29.574Z,99138.72
2023-04-22T03:24:57.334Z,99133.56
2023-04-22T03:27:24.994Z,99133.56
2023-04-22T03:29:52.575Z,99136.34
2023-04-22T03:32:20.583Z,99121.38
2023-04-22T03:34:48.349Z,99118.59
2023-04-22T03:37:15.946Z,99113.28
2023-04-22T03:39:43.534Z,99119.41
2023-04-22T03:42:11.174Z,99109.34
2023-04-22T03:44:39.424Z,99115.38
2023-04-22T03:47:07.022Z,99114.38
2023-04-22T03:49:35.050Z,99105.47
2023-04-22T03:52:02.794Z,99102.66
2023-04-22T03:54:31.096Z,99099.84
2023-04-22T03:56:59.025Z,99090.91
2023-04-22T03:59:26.664Z,99100.56
2023-04-22T04:01:54.812Z,99098.75
2023-04-22T04:04:24.141Z,99096.66
2023-04-22T04:06:52.132Z,99094.69
2023-04-22T04:09:19.890Z,99088.41
2023-04-22T04:11:47.495Z,99090.94
2023-04-22T04:14:15.149Z,99091.75
2023-04-22T04:16:43.176Z,99090.81
2023-04-22T04:19:10.789Z,99093.47
2023-04-22T04:21:40.007Z,99077.50
2023-04-22T04:24:07.623Z,99074.84
2023-04-22T04:26:35.297Z,99079.19
2023-04-22T04:29:02.944Z,99080.88
2023-04-22T04:31:30.560Z,99077.91
2023-04-22T04:33:59.071Z,99080.44
2023-04-22T04:36:29.531Z,99076.66
2023-04-22T04:38:57.480Z,99074.56
2023-04-22T04:41:27.177Z,99066.31
2023-04-22T04:43:54.756Z,99067.72
2023-04-22T04:46:22.724Z,99068.41
2023-04-22T04:48:51.809Z,99053.84
2023-04-22T04:51:20.500Z,99047.31
2023-04-22T04:53:48.211Z,99047.88
2023-04-22T04:56:16.964Z,99052.91
2023-04-22T04:58:45.194Z,99058.09
2023-04-22T05:01:12.905Z,99052.63
2023-04-22T05:03:40.761Z,99055.13
2023-04-22T05:06:08.564Z,99053.19
2023-04-22T05:08:36.409Z,99050.25
2023-04-22T05:11:04.582Z,99057.41
2023-04-22T05:13:32.147Z,99052.75
2023-04-22T05:15:59.974Z,99059.47
2023-04-22T05:18:27.651Z,99061.88
2023-04-22T05:20:55.685Z,99066.06
2023-04-22T05:23:23.534Z,99061.31
2023-04-22T05:25:53.281Z,99064.47
2023-04-22T05:28:21.142Z,99061.44
2023-04-22T05:30:48.793Z,99059.16
2023-04-22T05:33:16.440Z,99050.59
2023-04-22T05:35:44.458Z,99057.88
2023-04-22T05:38:12.078Z,99051.81
2023-04-22T05:40:40.604Z,99058.13
2023-04-22T05:43:08.567Z,99058.22
2023-04-22T05:45:36.185Z,99054.81
2023-04-22T05:48:04.206Z,99058.59
2023-04-22T05:50:31.891Z,99046.50
2023-04-22T05:52:59.544Z,99049.44
2023-04-22T05:55:27.235Z,99055.00
2023-04-22T05:57:54.812Z,99048.41
2023-04-22T06:00:22.896Z,99057.50
2023-04-22T06:02:50.743Z,99052.53
2023-04-22T06:05:18.857Z,99049.13
2023-04-22T06:07:46.697Z,99050.75
2023-04-22T06:10:14.350Z,99044.25
2023-04-22T06:12:42.262Z,99049.91
2023-04-22T06:15:09.986Z,99044.41
2023-04-22T06:17:37.838Z,99034.94
2023-04-22T06:20:05.521Z,99019.44
2023-04-22T06:22:33.144Z,99029.59
2023-04-22T06:25:01.556Z,99024.00
2023-04-22T06:27:29.582Z,99019.16
2023-04-22T06:29:57.184Z,99025.78
2023-04-22T06:32:24.881Z,99032.72
2023-04-22T06:34:52.507Z,99026.91
2023-04-22T06:37:20.676Z,99021.75
2023-04-22T06:39:48.348Z,99026.81
2023-04-22T06:42:16.006Z,99030.19
2023-04-22T06:44:43.696Z,99023.81
2023-04-22T06:47:11.498Z,99025.31
2023-04-22T06:49:41.378Z,99021.59
2023-04-22T06:52:09.366Z,99022.38
2023-04-22T06:54:37.052Z,99025.38
2023-04-22T06:57:04.667Z,99023.00
2023-04-22T06:59:32.243Z,99030.63
2023-04-22T07:02:00.563Z,99028.63
2023-04-22T07:04:29.533Z,99020.34
2023-04-22T07:06:57.193Z,99012.94
2023-04-22T07:09:24.962Z,99021.22
2023-04-22T07:11:53.037Z,99017.31
2023-04-22T07:14:21.100Z,99012.91
2023-04-22T07:16:49.027Z,99017.56
2023-04-22T07:19:16.811Z,99022.41
2023-04-22T07:21:47.420Z,99017.63
2023-04-22T07:24:15.796Z,99017.03
2023-04-22T07:26:44.059Z,99016.59
2023-04-22T07:29:13.054Z,99022.97
2023-04-22T07:31:40.756Z,99017.69
2023-04-22T07:34:10.768Z,99004.00
2023-04-22T07:36:39.560Z,99004.13
2023-04-22T07:39:08.813Z,99000.13
2023-04-22T07:41:36.740Z,98996.97
2023-04-22T07:44:04.581Z,99002.00
2023-04-22T07:46:32.385Z,98991.88
2023-04-22T07:49:00.140Z,98991.41
2023-04-22T07:51:28.702Z,99002.63
2023-04-22T07:53:56.605Z,98993.31
2023-04-22T07:56:24.769Z,98988.72
2023-04-22T07:58:52.639Z,98982.25
2023-04-22T08:01:20.449Z,98981.53
2023-04-22T08:03:48.994Z,98985.16
2023-04-22T08:06:16.980Z,98983.34
2023-04-22T08:08:44.687Z,98978.66
2023-04-22T08:11:12.362Z,98975.28
2023-04-22T08:13:40.063Z,98983.84
2023-04-22T08:16:08.492Z,98969.44
2023-04-22T08:18:36.678Z,98972.84
2023-04-22T08:21:04.516Z,98973.38
2023-04-22T08:23:32.688Z,98972.63
2023-04-22T08:26:00.355Z,98970.84
2023-04-22T08:28:28.638Z,98975.28
2023-04-22T08:30:56.409Z,98977.38
2023-04-22T08:33:26.572Z,98972.84
2023-04-22T08:35:54.813Z,98966.22
2023-04-22T08:38:22.528Z,98957.09
2023-04-22T08:40:51.660Z,98958.38
2023-04-22T08:43:19.393Z,98965.47
2023-04-22T08:45:47.133Z,98964.03
2023-04-22T08:48:14.856Z,98957.59
2023-04-22T08:50:42.679Z,98953.63
2023-04-22T08:53:10.748Z,98953.28
2023-04-22T08:55:38.519Z,98949.75
2023-04-22T08:58:06.365Z,98946.41
2023-04-22T09:00:34.779Z,98938.94
2023-04-22T09:03:03.142Z,98936.63
2023-04-22T09:05:31.825Z,98935.78
2023-04-22T09:07:59.621Z,98936.41
2023-04-22T09:10:28.584Z,98925.56
2023-04-22T09:12:56.379Z,98937.44
2023-04-22T09:15:24.143Z,98925.13
2023-04-22T09:17:52.455Z,98928.69
2023-04-22T09:20:20.213Z,98916.56
2023-04-22T09:22:48.251Z,98916.75
2023-04-22T09:25:16.379Z,98912.94
2023-04-22T09:27:44.175Z,98918.69
2023-04-22T09:30:12.854Z,98915.69
2023-04-22T09:32:40.787Z,98912.97
2023-04-22T09:35:08.589Z,98895.66
2023-04-22T09:37:48.583Z,98897.78
2023-04-22T09:40:18.238Z,98902.84
2023-04-22T09:42:46.120Z,98922.63
2023-04-22T09:45:13.833Z,98906.31
2023-04-22T09:47:41.673Z,98911.44
2023-04-22T09:50:09.578Z,98890.78
2023-04-22T09:52:38.262Z,98907.78
2023-04-22T09:55:05.982Z,98903.91
2023-04-22T09:57:33.898Z,98886.72
2023-04-22T10:00:02.278Z,98886.16
2023-04-22T10:02:30.180Z,98895.69
2023-04-22T10:04:59.319Z,98880.31
2023-04-22T10:07:31.900Z,98890.00
2023-04-22T10:09:59.893Z,98889.03
2023-04-22T10:12:35.250Z,98880.91
2023-04-22T10:15:04.694Z,98864.41
2023-04-22T10:17:32.614Z,98872.69
2023-04-22T10:20:00.673Z,98869.72
2023-04-22T10:22:28.515Z,98864.03
2023-04-22T10:24:58.052Z,98867.66
2023-04-22T10:27:26.522Z,98855.28
2023-04-22T10:29:54.579Z,98866.31
2023-04-22T10:32:22.807Z,98860.69
2023-04-22T10:34:50.697Z,98860.91
2023-04-22T10:37:18.461Z,98856.16
2023-04-22T10:39:46.971Z,98860.78
2023-04-22T10:42:15.608Z,98859.53
2023-04-22T10:44:43.405Z,98855.56
2023-04-22T10:47:11.175Z,98855.81
2023-04-22T10:49:39.764Z,98854.97
2023-04-22T10:52:09.512Z,98861.34
2023-04-22T10:54:37.953Z,98850.00
2023-04-22T10:57:05.736Z,98852.16
2023-04-22T10:59:33.855Z,98847.34
2023-04-22T11:02:01.728Z,98854.13
2023-04-22T11:04:30.329Z,98845.00
2023-04-22T11:06:58.332Z,98843.41
2023-04-22T11:09:26.124Z,98843.19
2023-04-22T11:11:54.505Z,98843.09
2023-04-22T11:14:22.299Z,98838.19
2023-04-22T11:16:50.968Z,98832.47
2023-04-22T11:19:18.897Z,98836.28
2023-04-22T11:21:47.603Z,98834.38
2023-04-22T11:24:16.296Z,98833.47
2023-04-22T11:26:44.185Z,98847.53
2023-04-22T11:29:12.422Z,98847.94
2023-04-22T11:31:40.205Z,98849.75
2023-04-22T11:34:08.038Z,98855.22
2023-04-22T11:36:35.980Z,98863.94
2023-04-22T11:39:03.801Z,98862.31
2023-04-22T11:41:32.309Z,98860.22
2023-04-22T11:44:00.051Z,98856.97
2023-04-22T11:46:27.952Z,98855.28
2023-04-22T11:48:55.746Z,98846.25
2023-04-22T11:51:23.605Z,98846.50
2023-04-22T11:53:52.288Z,98852.34
2023-04-22T11:56:20.554Z,98851.34
2023-04-22T11:58:48.424Z,98849.91
2023-04-22T12:01:16.316Z,98854.22
2023-04-22T12:03:44.431Z,98851.06
2023-04-22T12:06:13.310Z,98852.16
2023-04-22T12:08:42.629Z,98850.13
2023-04-22T12:11:10.843Z,98853.75
2023-04-22T12:13:38.892Z,98855.91
2023-04-22T12:16:06.780Z,98858.13
2023-04-22T12:18:36.531Z,98869.06
2023-04-22T12:21:04.485Z,98864.16
2023-04-22T12:23:32.627Z,98879.44
2023-04-22T12:26:00.396Z,98869.72
2023-04-22T12:28:28.355Z,98878.06
2023-04-22T12:30:56.715Z,98868.19
2023-04-22T12:33:24.786Z,98862.06
2023-04-22T12:35:53.446Z,98865.97
2023-04-22T12:38:21.393Z,98860.41
2023-04-22T12:40:49.641Z,98857.41
2023-04-22T12:43:17.977Z,98859.59
2023-04-22T12:45:45.870Z,98863.34
2023-04-22T12:48:13.760Z,98854.03
2023-04-22T12:50:41.695Z,98877.44
2023-04-22T12:53:09.499Z,98876.41
2023-04-22T12:55:37.755Z,98883.13
2023-04-22T12:58:05.641Z,98870.41
2023-04-22T13:00:33.528Z,98874.22
2023-04-22T13:03:01.476Z,98863.97
2023-04-22T13:05:29.453Z,98867.00
2023-04-22T13:08:06.465Z,98874.47
2023-04-22T13:10:35.946Z,98859.00
2023-04-22T13:13:16.153Z,98867.25
2023-04-22T13:15:45.951Z,98874.81
2023-04-22T13:18:14.063Z,98864.22
2023-04-22T13:20:42.570Z,98876.56
2023-04-22T13:23:11.602Z,98874.78
2023-04-22T13:25:39.511Z,98880.31
2023-04-22T13:28:07.588Z,98874.03
2023-04-22T13:30:35.806Z,98859.34
2023-04-22T13:33:03.592Z,98864.41
2023-04-22T13:35:31.300Z,98867.69
2023-04-22T13:37:59.117Z,98855.75
2023-04-22T13:40:27.537Z,98858.84
2023-04-22T13:42:55.631Z,98853.88
2023-04-22T13:45:23.851Z,98857.06
2023-04-22T13:47:52.410Z,98861.13
2023-04-22T13:50:20.254Z,98869.97
2023-04-22T13:52:48.006Z,98848.75
2023-04-22T13:55:16.594Z,98846.25
2023-04-22T13:57:44.820Z,98855.25
2023-04-22T14:00:12.644Z,98845.41
2023-04-22T14:02:40.678Z,98855.63
2023-04-22T14:05:10.815Z,98855.94
2023-04-22T14:07:40.411Z,98852.63
2023-04-22T14:10:08.813Z,98857.53
2023-04-22T14:12:36.825Z,98847.84
2023-04-22T14:15:04.774Z,98857.16
2023-04-22T14:17:32.650Z,98856.06
2023-04-22T14:20:01.067Z,98864.28
2023-04-22T14:22:29.028Z,98869.19
2023-04-22T14:24:57.022Z,98868.81
2023-04-22T14:27:24.875Z,98864.47
2023-04-22T14:29:53.499Z,98866.63
2023-04-22T14:32:22.695Z,98863.31
2023-04-22T14:34:50.428Z,98869.59
2023-04-22T14:37:18.602Z,98863.81
2023-04-22T14:39:46.512Z,98861.56
2023-04-22T14:42:15.696Z,98864.53
2023-04-22T14:44:44.204Z,98870.63
2023-04-22T14:47:11.945Z,98871.84
2023-04-22T14:49:40.578Z,98877.47
2023-04-22T14:52:08.618Z,98875.66
2023-04-22T14:54:36.319Z,98883.75
2023-04-22T14:57:04.976Z,98879.81
2023-04-22T14:59:32.798Z,98891.91
2023-04-22T15:02:00.976Z,98887.94
2023-04-22T15:04:28.995Z,98898.34
2023-04-22T15:06:57.937Z,98901.69
2023-04-22T15:09:26.658Z,98901.50
2023-04-22T15:11:56.674Z,98908.34
2023-04-22T15:14:24.855Z,98907.94
2023-04-22T15:16:52.653Z,98923.47
2023-04-22T15:19:20.498Z,98925.13
2023-04-22T15:21:48.841Z,98935.81
2023-04-22T15:24:16.754Z,98941.72
2023-04-22T15:26:44.569Z,98948.59
2023-04-22T15:29:12.606Z,98948.06
2023-04-22T15:31:40.557Z,98959.84
2023-04-22T15:34:09.182Z,98951.06
2023-04-22T15:36:37.102Z,98946.72
2023-04-22T15:39:05.635Z,98948.44
2023-04-22T15:41:34.318Z,98949.44
2023-04-22T15:44:02.334Z,98958.09
2023-04-22T15:46:31.246Z,98956.63
2023-04-22T15:48:59.245Z,98952.38
2023-04-22T15:51:27.241Z,98951.88
2023-04-22T15:53:55.088Z,98954.41
2023-04-22T15:56:23.351Z,98951.94
2023-04-22T15:58:51.496Z,98949.41
2023-04-22T16:01:20.290Z,98947.38
2023-04-22T16:03:48.692Z,98934.97
2023-04-22T16:06:16.826Z,98931.94
2023-04-22T16:08:45.710Z,98936.59
2023-04-22T16:11:14.304Z,98933.16
2023-04-22T16:13:42.054Z,98926.03
2023-04-22T16:16:09.987Z,98930.84
2023-04-22T16:18:38.277Z,98924.09
2023-04-22T16:21:06.197Z,98926.22
2023-04-22T16:23:34.871Z,98916.75
2023-04-22T16:26:04.718Z,98918.06
2023-04-22T16:28:32.674Z,98921.41
2023-04-22T16:31:00.733Z,98923.06
2023-04-22T16:33:28.604Z,98920.03
2023-04-22T16:35:56.912Z,98925.41
2023-04-22T16:38:24.764Z,98920.38
2023-04-22T16:40:54.394Z,98925.97
2023-04-22T16:43:22.364Z,98913.34
2023-04-22T16:45:50.160Z,98909.44
2023-04-22T16:48:18.509Z,98909.06
2023-04-22T16:50:46.346Z,98915.91
2023-04-22T16:53:14.156Z,98911.56
2023-04-22T16:55:43.212Z,98906.19
2023-04-22T16:58:12.243Z,98897.47
2023-04-22T17:00:41.066Z,98902.22
2023-04-22T17:03:09.068Z,98895.16
2023-04-22T17:05:37.294Z,98901.56
2023-04-22T17:08:05.378Z,98914.19
2023-04-22T17:10:35.001Z,98901.94
2023-04-22T17:13:03.915Z,98901.94
2023-04-22T17:15:31.760Z,98906.47
2023-04-22T17:17:59.824Z,98904.81
2023-04-22T17:20:27.948Z,98901.09
2023-04-22T17:22:55.729Z,98905.44
2023-04-22T17:25:24.703Z,98904.44
2023-04-22T17:27:52.754Z,98908.97
2023-04-22T17:30:20.661Z,98910.66
2023-04-22T17:32:48.624Z,98914.19
2023-04-22T17:35:16.737Z,98922.88
2023-04-22T17:37:45.043Z,98914.66
2023-04-22T17:40:13.040Z,98920.66
2023-04-22T17:42:45.607Z,98917.78
2023-04-22T17:45:14.318Z,98922.16
2023-04-22T17:47:42.529Z,98925.66
2023-04-22T17:50:11.437Z,98920.47
2023-04-22T17:52:39.401Z,98930.41
2023-04-22T17:55:07.280Z,98922.72
2023-04-22T17:57:35.130Z,98922.88
2023-04-22T18:00:03.065Z,98928.19
2023-04-22T18:02:31.558Z,98930.50
2023-04-22T18:04:59.487Z,98936.88
2023-04-22T18:07:27.338Z,98941.84
2023-04-22T18:09:55.691Z,98949.13
2023-04-22T18:12:27.654Z,98949.88
2023-04-22T18:14:57.529Z,98953.09
2023-04-22T18:17:25.496Z,98949.94
2023-04-22T18:20:02.775Z,98952.81
2023-04-22T18:22:37.984Z,98963.38
2023-04-22T18:25:06.570Z,98970.59
2023-04-22T18:27:34.418Z,98965.75
2023-04-22T18:30:02.304Z,98974.22
2023-04-22T18:32:30.223Z,98974.50
2023-04-22T18:34:58.086Z,98982.25
2023-04-22T18:37:30.239Z,98987.78
2023-04-22T18:39:58.040Z,98981.66
2023-04-22T18:42:25.837Z,98987.59
2023-04-22T18:44:53.890Z,98990.56
2023-04-22T18:47:21.621Z,98996.78
2023-04-22T18:49:49.956Z,98990.81
2023-04-22T18:52:18.350Z,98998.03
2023-04-22T18:54:46.205Z,98997.06
2023-04-22T18:57:14.097Z,98995.25
2023-04-22T18:59:42.531Z,98998.63
2023-04-22T19:02:11.045Z,99007.00
2023-04-22T19:04:39.082Z,99004.81
2023-04-22T19:07:07.251Z,99006.03
2023-04-22T19:09:35.182Z,99004.31
2023-04-22T19:12:03.117Z,99008.00
2023-04-22T19:14:33.414Z,99002.50
2023-04-22T19:17:01.399Z,99006.03
2023-04-22T19:19:29.472Z,99000.66
2023-04-22T19:21:57.505Z,99002.50
2023-04-22T19:24:27.314Z,99000.66
2023-04-22T19:26:55.949Z,98999.81
2023-04-22T19:29:23.951Z,98996.28
2023-04-22T19:31:51.744Z,98993.59
2023-04-22T19:34:19.663Z,98990.91
2023-04-22T19:36:49.214Z,98991.94
2023-04-22T19:39:18.722Z,98984.59
2023-04-22T19:41:46.673Z,98993.44
2023-04-22T19:44:14.739Z,98990.75
2023-04-22T19:46:42.646Z,98987.25
2023-04-22T19:49:10.586Z,98990.91
2023-04-22T19:51:39.594Z,98986.56
2023-04-22T19:54:07.812Z,98994.97
2023-04-22T19:56:35.906Z,98991.63
2023-04-22T19:59:04.138Z,98987.59
2023-04-22T20:01:32.018Z,98981.75
2023-04-22T20:04:01.013Z,98982.09
2023-04-22T20:06:29.663Z,98977.91
2023-04-22T20:08:59.178Z,98980.97
2023-04-22T20:11:29.200Z,98983.78
2023-04-22T20:13:57.419Z,98981.28
2023-04-22T20:16:25.885Z,98974.25
2023-04-22T20:18:54.666Z,98970.25
2023-04-22T20:21:22.863Z,98967.72
2023-04-22T20:23:50.808Z,98973.41
2023-04-22T20:26:18.550Z,98967.56
2023-04-22T20:28:47.658Z,98967.91
2023-04-22T20:31:16.920Z,98961.91
2023-04-22T20:33:44.938Z,98960.38
2023-04-22T20:36:12.986Z,98973.94
2023-04-22T20:38:40.911Z,98978.47
2023-04-22T20:41:09.848Z,98976.47
2023-04-22T20:43:38.365Z,98974.28
2023-04-22T20:46:06.917Z,98978.63
2023-04-22T20:48:34.830Z,98973.09
2023-04-22T20:51:02.790Z,98976.28
2023-04-22T20:53:31.380Z,98977.78
2023-04-22T20:55:59.317Z,98977.59
2023-04-22T20:58:27.225Z,98981.78
2023-04-22T21:00:55.018Z,99001.19
2023-04-22T21:03:23.186Z,99011.75
2023-04-22T21:05:52.614Z,99007.75
2023-04-22T21:08:21.724Z,99014.47
2023-04-22T21:10:49.622Z,99021.44
2023-04-22T21:13:17.575Z,99026.94
2023-04-22T21:15:45.685Z,99036.44
2023-04-22T21:18:13.769Z,99033.91
2023-04-22T21:20:41.664Z,99031.88
2023-04-22T21:23:10.533Z,99037.06
2023-04-22T21:25:38.324Z,99031.69
2023-04-22T21:28:06.758Z,99032.31
2023-04-22T21:30:35.265Z,99033.97
2023-04-22T21:33:03.185Z,99030.09
2023-04-22T21:35:31.604Z,99034.94
2023-04-22T21:37:59.532Z,99035.41
2023-04-22T21:40:27.846Z,99038.91
2023-04-22T21:42:56.347Z,99036.09
2023-04-22T21:45:24.178Z,99035.75
2023-04-22T21:47:52.027Z,99032.91
2023-04-22T21:50:20.977Z,99037.28
2023-04-22T21:52:48.995Z,99035.44
2023-04-22T21:55:17.194Z,99030.91
2023-04-22T21:57:45.061Z,99036.97
2023-04-22T22:00:15.796Z,99034.97
2023-04-22T22:02:43.857Z,99035.63
2023-04-22T22:05:11.920Z,99035.47
2023-04-22T22:07:40.889Z,99036.16
2023-04-22T22:10:09.130Z,99037.00
2023-04-22T22:12:37.483Z,99035.00
2023-04-22T22:15:06.203Z,99029.66
2023-04-22T22:17:33.968Z,99043.00
2023-04-22T22:20:03.162Z,99036.81
2023-04-22T22:22:32.976Z,99041.50
2023-04-22T22:25:01.876Z,99041.50
2023-04-22T22:27:29.676Z,99047.84
2023-04-22T22:29:57.379Z,99042.66
2023-04-22T22:32:25.948Z,99052.66
2023-04-22T22:34:54.226Z,99057.03
2023-04-22T22:37:21.960Z,99053.34
2023-04-22T22:39:49.695Z,99068.56
2023-04-22T22:42:17.515Z,99068.38
2023-04-22T22:44:45.865Z,99063.03
2023-04-22T22:47:13.715Z,99061.22
2023-04-22T22:49:43.027Z,99065.56
2023-04-22T22:52:10.779Z,99068.09
2023-04-22T22:54:38.674Z,99069.75
2023-04-22T22:57:08.723Z,99074.09
2023-04-22T22:59:36.471Z,99069.59
2023-04-22T23:02:04.265Z,99067.44
2023-04-22T23:04:32.174Z,99064.94
2023-04-22T23:07:01.721Z,99064.94
2023-04-22T23:09:29.962Z,99072.78
2023-04-22T23:11:57.666Z,99083.94
2023-04-22T23:14:26.860Z,99081.75
2023-04-22T23:16:54.556Z,99082.56
2023-04-22T23:19:22.719Z,99081.53
2023-04-22T23:21:50.742Z,99082.16
2023-04-22T23:24:18.503Z,99082.97
2023-04-22T23:26:46.235Z,99088.22
2023-04-22T23:29:13.902Z,99079.16
2023-04-22T23:31:41.609Z,99079.94
2023-04-22T23:34:09.878Z,99094.09
2023-04-22T23:36:37.720Z,99092.03
2023-04-22T23:39:05.786Z,99088.28
2023-04-22T23:41:33.974Z,99083.25
2023-04-22T23:44:01.714Z,99081.22
2023-04-22T23:46:29.921Z,99080.97
2023-04-22T23:48:57.694Z,99079.63
2023-04-22T23:51:25.364Z,99080.09
2023-04-22T23:53:53.003Z,99081.38
2023-04-22T23:56:23.062Z,99067.66
2023-04-22T23:58:51.091Z,99083.97
